Time;durP1;ratioP1;P1;durP2;ratioP2;P2;SDS_P1;SDS_P2;PMS_P1;PMS_P2;Temp;Humidity;BMP_temperature;BMP_pressure;BME280_temperature;BME280_humidity;BME280_pressure;Samples;Min_cycle;Max_cycle;Signal;HPM_P1;HPM_P2
2022/08/04 00:00:07;;;;;;;20.98;11.93;;;20.60;99.90;;;;;;4957763;28;20042;-58
2022/08/04 00:03:05;;;;;;;29.45;12.23;;;20.50;99.90;;;;;;4958803;28;20132;-58
2022/08/04 00:05:46;;;;;;;25.30;13.38;;;20.50;99.90;;;;;;4959156;28;20046;-59
2022/08/04 00:08:36;;;;;;;26.10;12.50;;;20.50;99.90;;;;;;4968713;28;20053;-56
2022/08/04 00:11:02;;;;;;;24.33;12.68;;;20.50;99.90;;;;;;4964176;28;20058;-58
2022/08/04 00:13:35;;;;;;;24.63;11.93;;;20.50;99.90;;;;;;4981339;28;20078;-57
2022/08/04 00:16:09;;;;;;;27.17;12.82;;;20.50;99.90;;;;;;4964643;28;20046;-57
2022/08/04 00:18:48;;;;;;;24.80;13.32;;;20.40;99.90;;;;;;4981759;28;20038;-58
2022/08/04 00:21:17;;;;;;;30.17;13.00;;;20.40;99.90;;;;;;4982297;28;20049;-58
2022/08/04 00:23:44;;;;;;;25.90;13.05;;;20.30;99.90;;;;;;4981080;28;20081;-60
2022/08/04 00:26:10;;;;;;;25.17;12.88;;;20.30;99.90;;;;;;4982095;28;20133;-57
2022/08/04 00:28:37;;;;;;;25.70;11.98;;;20.20;99.90;;;;;;4980700;28;20093;-59
2022/08/04 00:31:04;;;;;;;26.65;12.93;;;20.20;99.90;;;;;;4981951;28;20443;-58
2022/08/04 00:33:31;;;;;;;25.92;13.35;;;20.20;99.90;;;;;;4980587;28;20557;-58
2022/08/04 00:35:59;;;;;;;27.73;13.10;;;20.20;99.90;;;;;;4981627;28;20073;-57
2022/08/04 00:38:26;;;;;;;28.45;13.27;;;20.10;99.90;;;;;;4963870;28;20045;-58
2022/08/04 00:41:10;;;;;;;24.92;13.25;;;20.20;99.90;;;;;;4980695;28;20060;-59
2022/08/04 00:44:02;;;;;;;26.90;12.75;;;20.10;99.90;;;;;;4980982;28;20053;-58
2022/08/04 00:47:04;;;;;;;30.05;14.07;;;20.00;99.90;;;;;;4980641;28;20108;-58
2022/08/04 00:49:47;;;;;;;23.13;13.48;;;20.00;99.90;;;;;;4945731;28;20241;-59
2022/08/04 00:52:16;;;;;;;24.10;13.98;;;20.00;99.90;;;;;;4981682;28;20073;-58
2022/08/04 00:54:58;;;;;;;26.48;14.57;;;20.00;99.90;;;;;;4981898;28;20069;-58
2022/08/04 00:57:42;;;;;;;29.52;14.30;;;20.00;99.90;;;;;;4980885;28;20222;-60
2022/08/04 01:00:13;;;;;;;30.38;14.57;;;20.10;99.90;;;;;;4981315;28;20050;-57
2022/08/04 01:02:56;;;;;;;27.83;14.68;;;20.00;99.90;;;;;;4980479;28;20137;-58
2022/08/04 01:05:28;;;;;;;23.58;13.52;;;20.00;99.90;;;;;;4980466;28;20046;-58
2022/08/04 01:08:15;;;;;;;26.40;14.48;;;20.10;99.90;;;;;;4952175;28;20070;-59
2022/08/04 01:10:54;;;;;;;26.33;13.82;;;20.00;99.90;;;;;;4942922;29;20043;-56
2022/08/04 01:13:43;;;;;;;27.80;14.20;;;20.10;99.90;;;;;;4940022;29;20066;-57
2022/08/04 01:16:11;;;;;;;29.05;14.27;;;20.00;99.90;;;;;;4942429;29;20047;-57
2022/08/04 01:19:00;;;;;;;28.92;14.05;;;20.00;99.90;;;;;;4955521;28;20053;-58
2022/08/04 01:21:29;;;;;;;26.88;13.25;;;20.00;99.90;;;;;;4961074;28;20043;-58
2022/08/04 01:24:28;;;;;;;28.63;14.02;;;19.90;99.90;;;;;;4961518;28;20050;-58
2022/08/04 01:27:05;;;;;;;26.40;14.73;;;19.90;99.90;;;;;;4961686;28;20051;-58
2022/08/04 01:29:46;;;;;;;25.92;13.38;;;19.90;99.90;;;;;;4959583;28;20046;-58
2022/08/04 01:32:27;;;;;;;26.52;14.70;;;19.90;99.90;;;;;;4961641;28;20139;-57
2022/08/04 01:35:01;;;;;;;30.27;13.93;;;20.00;99.90;;;;;;4960219;28;20046;-59
2022/08/04 01:37:51;;;;;;;27.77;14.15;;;19.90;99.90;;;;;;4959586;28;20055;-58
2022/08/04 01:40:17;;;;;;;26.48;14.57;;;19.80;99.90;;;;;;4942695;28;20057;-57
2022/08/04 01:42:44;;;;;;;28.23;14.32;;;19.80;99.90;;;;;;4960676;28;20121;-58
2022/08/04 01:45:12;;;;;;;27.98;14.45;;;19.90;99.90;;;;;;4960994;28;20050;-57
2022/08/04 01:47:42;;;;;;;26.15;14.27;;;19.90;99.90;;;;;;4960677;28;20348;-58
2022/08/04 01:50:13;;;;;;;26.92;13.95;;;19.80;99.90;;;;;;4960829;28;20125;-57
2022/08/04 01:52:41;;;;;;;27.75;14.18;;;19.90;99.90;;;;;;4960947;28;20030;-58
2022/08/04 01:55:09;;;;;;;29.55;14.77;;;19.80;99.90;;;;;;4943559;28;20409;-57
2022/08/04 01:57:46;;;;;;;26.95;15.15;;;19.90;99.90;;;;;;4959558;28;20046;-58
2022/08/04 02:00:21;;;;;;;24.20;13.75;;;19.90;99.90;;;;;;4961213;28;20043;-57
2022/08/04 02:02:49;;;;;;;29.08;15.95;;;19.90;99.90;;;;;;4960950;28;20072;-57
2022/08/04 02:05:16;;;;;;;25.30;14.20;;;19.90;99.90;;;;;;4960576;28;20161;-60
2022/08/04 02:08:19;;;;;;;25.75;14.57;;;19.90;99.90;;;;;;4953374;28;20051;-57
2022/08/04 02:11:15;;;;;;;31.92;14.70;;;19.90;99.90;;;;;;4924372;29;20186;-60
2022/08/04 02:14:03;;;;;;;33.70;14.73;;;20.00;99.90;;;;;;4938537;29;20053;-58
2022/08/04 02:16:49;;;;;;;23.00;13.82;;;19.90;99.90;;;;;;4947803;28;20105;-57
2022/08/04 02:19:29;;;;;;;25.88;14.05;;;20.00;99.90;;;;;;4959956;28;20441;-58
2022/08/04 02:22:08;;;;;;;26.38;14.68;;;19.90;99.90;;;;;;4960312;28;20303;-58
2022/08/04 02:24:42;;;;;;;20.58;13.82;;;19.90;99.90;;;;;;4959873;28;20093;-58
2022/08/04 02:27:08;;;;;;;29.55;13.77;;;19.90;99.90;;;;;;4959862;28;20118;-57
2022/08/04 02:29:45;;;;;;;23.83;13.60;;;19.80;99.90;;;;;;4942093;28;20051;-58
2022/08/04 02:32:20;;;;;;;24.15;13.73;;;19.90;99.90;;;;;;4959540;28;20606;-58
2022/08/04 02:35:05;;;;;;;22.85;13.15;;;19.90;99.90;;;;;;4960523;28;20039;-58
2022/08/04 02:37:32;;;;;;;25.55;12.70;;;19.80;99.90;;;;;;4958964;28;20165;-58
2022/08/04 02:40:00;;;;;;;26.98;13.88;;;19.70;99.90;;;;;;4960387;28;20402;-57
2022/08/04 02:42:27;;;;;;;20.33;12.18;;;19.70;99.90;;;;;;4959005;28;20046;-57
2022/08/04 02:44:58;;;;;;;20.15;12.13;;;19.70;99.90;;;;;;4959475;28;20517;-58
2022/08/04 02:47:25;;;;;;;19.92;12.73;;;19.70;99.90;;;;;;4959470;28;20066;-58
2022/08/04 02:49:52;;;;;;;27.35;12.30;;;19.70;99.90;;;;;;4960221;28;20059;-58
2022/08/04 02:52:19;;;;;;;23.23;12.70;;;19.60;99.90;;;;;;4959816;28;20466;-59
2022/08/04 02:54:47;;;;;;;21.33;13.20;;;19.50;99.90;;;;;;4959542;28;20057;-58
2022/08/04 02:57:16;;;;;;;24.05;14.27;;;19.60;99.90;;;;;;4960021;28;20445;-57
2022/08/04 03:00:06;;;;;;;27.17;13.20;;;19.40;99.90;;;;;;4942093;28;20073;-58
2022/08/04 03:02:54;;;;;;;21.50;13.23;;;19.40;99.90;;;;;;4959365;28;20047;-57
2022/08/04 03:05:41;;;;;;;24.92;13.80;;;19.30;99.90;;;;;;4959329;28;20426;-57
2022/08/04 03:08:24;;;;;;;23.55;13.43;;;19.50;99.90;;;;;;4950573;28;20051;-57
2022/08/04 03:11:08;;;;;;;24.08;13.50;;;19.40;99.90;;;;;;4939606;29;20077;-57
2022/08/04 03:13:52;;;;;;;19.60;12.63;;;19.50;99.90;;;;;;4939548;29;20048;-57
2022/08/04 03:16:44;;;;;;;20.20;11.73;;;19.50;99.90;;;;;;4939432;29;20414;-57
2022/08/04 03:19:47;;;;;;;22.50;12.10;;;19.50;99.90;;;;;;4940272;29;20406;-57
2022/08/04 03:22:12;;;;;;;14.55;10.98;;;19.50;99.90;;;;;;4940722;29;20238;-57
2022/08/04 03:25:22;;;;;;;21.77;12.00;;;19.50;99.90;;;;;;4939970;29;20050;-57
2022/08/04 03:28:23;;;;;;;19.95;11.98;;;19.40;99.90;;;;;;4939633;29;20066;-57
2022/08/04 03:31:08;;;;;;;20.52;12.90;;;19.40;99.90;;;;;;4940531;29;20058;-57
2022/08/04 03:33:40;;;;;;;26.13;13.10;;;19.40;99.90;;;;;;4921749;29;20174;-57
2022/08/04 03:36:27;;;;;;;21.60;12.75;;;19.30;99.90;;;;;;4940240;29;20051;-57
2022/08/04 03:39:46;;;;;;;20.40;11.55;;;19.30;99.90;;;;;;4939476;29;20062;-57
2022/08/04 03:42:23;;;;;;;23.05;13.70;;;19.30;99.90;;;;;;4898484;29;20673;-57
2022/08/04 03:44:51;;;;;;;21.38;12.43;;;19.30;99.90;;;;;;4899895;29;20591;-58
2022/08/04 03:47:28;;;;;;;20.75;12.82;;;19.30;99.90;;;;;;4925182;29;20054;-56
2022/08/04 03:50:09;;;;;;;23.02;14.65;;;19.30;99.90;;;;;;4943879;29;20058;-57
2022/08/04 03:53:12;;;;;;;22.15;14.18;;;19.30;99.90;;;;;;4943311;29;20409;-57
2022/08/04 03:55:56;;;;;;;23.80;14.10;;;19.30;99.90;;;;;;4943411;29;20814;-59
2022/08/04 03:58:36;;;;;;;23.00;13.73;;;19.30;99.90;;;;;;4940473;29;20534;-57
2022/08/04 04:01:09;;;;;;;21.98;13.55;;;19.20;99.90;;;;;;4943609;29;20051;-58
2022/08/04 04:03:57;;;;;;;19.83;13.13;;;19.30;99.90;;;;;;4943834;29;20130;-57
2022/08/04 04:06:45;;;;;;;23.55;13.88;;;19.30;99.90;;;;;;4945325;28;20329;-57
2022/08/04 04:09:49;;;;;;;24.73;14.05;;;19.50;99.90;;;;;;4943017;29;20043;-56
2022/08/04 04:12:37;;;;;;;21.33;13.15;;;19.50;99.90;;;;;;4942894;29;20056;-56
2022/08/04 04:15:29;;;;;;;24.80;15.85;;;19.50;99.90;;;;;;4943080;29;20513;-58
2022/08/04 04:18:13;;;;;;;26.80;15.10;;;19.50;99.90;;;;;;4937790;29;20399;-57
2022/08/04 04:21:09;;;;;;;24.08;13.60;;;19.50;99.90;;;;;;4943402;29;20051;-57
2022/08/04 04:24:02;;;;;;;23.98;13.65;;;19.50;99.90;;;;;;4943198;29;20113;-57
2022/08/04 04:26:53;;;;;;;27.90;15.27;;;19.40;99.90;;;;;;4942467;29;20047;-57
2022/08/04 04:29:55;;;;;;;23.33;14.77;;;19.40;99.90;;;;;;4942059;29;20443;-58
2022/08/04 04:32:37;;;;;;;26.25;14.45;;;19.40;99.90;;;;;;4943245;29;20047;-57
2022/08/04 04:35:03;;;;;;;20.60;13.80;;;19.50;99.90;;;;;;4942271;29;20062;-57
2022/08/04 04:37:47;;;;;;;23.55;14.85;;;19.50;99.90;;;;;;4942808;29;20040;-57
2022/08/04 04:40:31;;;;;;;25.42;14.30;;;19.60;99.90;;;;;;4942896;29;20066;-57
2022/08/04 04:43:26;;;;;;;23.73;14.15;;;19.70;99.90;;;;;;4941822;29;20047;-57
2022/08/04 04:46:09;;;;;;;20.85;13.40;;;19.80;99.90;;;;;;4940868;28;20074;-57
2022/08/04 04:48:49;;;;;;;23.20;14.27;;;19.80;99.90;;;;;;4942789;29;20054;-57
2022/08/04 04:51:15;;;;;;;22.88;13.93;;;19.90;99.90;;;;;;4942296;29;20061;-57
2022/08/04 04:53:53;;;;;;;22.63;14.52;;;20.00;99.90;;;;;;4942884;29;20487;-60
2022/08/04 04:56:28;;;;;;;25.92;14.10;;;20.20;99.90;;;;;;4941554;28;20047;-57
2022/08/04 04:58:55;;;;;;;20.95;15.30;;;20.70;99.90;;;;;;4941009;29;20036;-57
2022/08/04 05:02:01;;;;;;;28.05;15.23;;;21.00;99.90;;;;;;4942869;29;20399;-57
2022/08/04 05:04:26;;;;;;;26.85;14.80;;;21.20;99.90;;;;;;4942169;29;20058;-57
2022/08/04 05:07:20;;;;;;;22.20;13.68;;;21.30;99.90;;;;;;4948722;28;20043;-57
2022/08/04 05:10:05;;;;;;;20.05;13.43;;;21.30;99.90;;;;;;4943849;28;20138;-57
2022/08/04 05:12:37;;;;;;;20.73;12.70;;;21.40;99.90;;;;;;4941174;29;20238;-58
2022/08/04 05:15:07;;;;;;;21.05;13.15;;;21.40;99.90;;;;;;4941677;29;20699;-57
2022/08/04 05:17:34;;;;;;;24.10;12.07;;;21.50;99.90;;;;;;4925377;29;20394;-57
2022/08/04 05:20:06;;;;;;;21.55;12.23;;;21.50;99.90;;;;;;4942191;29;20039;-58
2022/08/04 05:22:54;;;;;;;24.98;13.02;;;21.60;99.90;;;;;;4940072;29;20059;-57
2022/08/04 05:25:25;;;;;;;22.73;12.05;;;21.80;99.90;;;;;;4941688;29;20047;-57
2022/08/04 05:28:00;;;;;;;21.90;11.80;;;21.90;99.90;;;;;;4940498;29;20051;-57
2022/08/04 05:30:29;;;;;;;23.42;12.20;;;22.00;99.90;;;;;;4940349;29;20880;-57
2022/08/04 05:33:15;;;;;;;18.27;11.65;;;22.30;99.90;;;;;;4942309;29;20053;-57
2022/08/04 05:35:48;;;;;;;21.88;11.40;;;22.50;99.90;;;;;;4941997;29;20051;-57
2022/08/04 05:38:16;;;;;;;21.58;11.13;;;22.80;99.90;;;;;;4942241;29;20129;-57
2022/08/04 05:40:43;;;;;;;18.85;10.27;;;22.90;99.90;;;;;;4942283;29;20590;-55
2022/08/04 05:43:11;;;;;;;22.30;10.38;;;23.10;99.90;;;;;;4940566;29;20391;-58
2022/08/04 05:45:37;;;;;;;17.42;9.30;;;23.30;99.90;;;;;;4941758;29;20058;-60
2022/08/04 05:48:05;;;;;;;20.08;9.43;;;22.90;99.90;;;;;;4940865;29;20413;-57
2022/08/04 05:50:32;;;;;;;15.88;8.48;;;22.80;99.90;;;;;;4940918;29;20051;-57
2022/08/04 05:52:59;;;;;;;21.60;9.15;;;22.90;99.90;;;;;;4941593;29;20043;-57
2022/08/04 05:55:26;;;;;;;17.38;8.15;;;22.80;99.90;;;;;;4941173;29;20122;-58
2022/08/04 05:57:53;;;;;;;17.20;8.77;;;22.70;99.90;;;;;;4941043;29;20136;-59
2022/08/04 06:00:18;;;;;;;17.77;8.13;;;22.80;99.90;;;;;;4940356;29;20058;-57
2022/08/04 06:02:47;;;;;;;18.23;7.75;;;23.20;99.90;;;;;;4942114;29;20180;-58
2022/08/04 06:05:16;;;;;;;20.77;7.70;;;23.70;99.90;;;;;;4941763;29;20123;-59
2022/08/04 06:07:42;;;;;;;13.43;7.10;;;24.00;99.90;;;;;;4951355;28;20046;-58
2022/08/04 06:10:09;;;;;;;13.48;7.40;;;23.90;99.90;;;;;;4940340;29;20299;-58
2022/08/04 06:12:46;;;;;;;15.65;7.00;;;24.20;99.90;;;;;;4940062;29;20142;-58
2022/08/04 06:15:17;;;;;;;14.15;7.20;;;24.10;99.90;;;;;;4941568;29;20513;-58
2022/08/04 06:17:48;;;;;;;17.27;6.93;;;24.00;99.90;;;;;;4940839;29;20050;-59
2022/08/04 06:20:15;;;;;;;15.70;6.95;;;23.60;99.90;;;;;;4924061;29;20051;-58
2022/08/04 06:22:44;;;;;;;10.93;6.65;;;23.90;99.90;;;;;;4941796;29;20490;-55
2022/08/04 06:25:15;;;;;;;16.10;7.05;;;23.60;99.90;;;;;;4940359;29;20417;-58
2022/08/04 06:27:42;;;;;;;17.92;7.22;;;23.80;99.90;;;;;;4941169;29;20048;-59
2022/08/04 06:30:13;;;;;;;16.52;7.63;;;23.90;99.90;;;;;;4940906;29;20047;-58
2022/08/04 06:32:55;;;;;;;15.15;7.50;;;24.00;99.90;;;;;;4923428;29;20123;-59
2022/08/04 06:35:23;;;;;;;14.13;7.80;;;24.10;99.90;;;;;;4940533;29;20050;-59
2022/08/04 06:37:51;;;;;;;11.70;7.50;;;24.30;99.90;;;;;;4941291;29;20208;-59
2022/08/04 06:40:19;;;;;;;16.30;7.68;;;24.40;99.90;;;;;;4938125;29;20395;-58
2022/08/04 06:42:46;;;;;;;16.45;7.63;;;24.30;99.90;;;;;;4940505;29;20095;-58
2022/08/04 06:45:13;;;;;;;18.58;8.48;;;24.40;99.90;;;;;;4939231;29;20214;-57
2022/08/04 06:47:41;;;;;;;16.52;8.00;;;24.60;99.90;;;;;;4939109;29;20149;-58
2022/08/04 06:50:09;;;;;;;15.23;7.85;;;24.50;99.90;;;;;;4938456;29;20051;-56
2022/08/04 06:52:35;;;;;;;14.88;7.93;;;24.30;99.90;;;;;;4940458;29;20035;-58
2022/08/04 06:55:02;;;;;;;17.38;8.38;;;24.40;99.90;;;;;;4941119;29;20057;-58
2022/08/04 06:57:29;;;;;;;14.63;8.52;;;24.10;99.90;;;;;;4939004;29;20065;-58
2022/08/04 07:00:05;;;;;;;17.52;8.35;;;24.30;99.90;;;;;;4939578;29;21315;-58
2022/08/04 07:02:41;;;;;;;19.00;8.93;;;24.10;99.90;;;;;;4939308;29;20189;-57
2022/08/04 07:05:07;;;;;;;17.98;8.68;;;24.30;99.90;;;;;;4939960;29;20530;-56
2022/08/04 07:07:34;;;;;;;16.55;8.30;;;24.60;99.90;;;;;;4951382;28;20039;-58
2022/08/04 07:10:01;;;;;;;14.45;7.85;;;24.30;99.90;;;;;;4940256;29;20044;-58
2022/08/04 07:12:27;;;;;;;18.58;8.07;;;24.60;99.90;;;;;;4939306;29;20399;-57
2022/08/04 07:14:54;;;;;;;15.65;7.70;;;24.60;99.90;;;;;;4939748;29;20074;-58
2022/08/04 07:17:20;;;;;;;16.48;8.75;;;24.70;99.90;;;;;;4940074;29;20051;-57
2022/08/04 07:19:47;;;;;;;15.90;7.70;;;24.60;99.90;;;;;;4940383;28;20039;-58
2022/08/04 07:22:14;;;;;;;16.80;6.90;;;24.80;99.90;;;;;;4940523;29;20078;-57
2022/08/04 07:24:41;;;;;;;16.42;6.28;;;24.60;99.90;;;;;;4939215;29;20150;-58
2022/08/04 07:27:07;;;;;;;18.33;6.72;;;24.50;99.90;;;;;;4939453;29;20173;-57
2022/08/04 07:29:37;;;;;;;18.38;6.97;;;24.70;99.90;;;;;;4939711;29;20552;-58
2022/08/04 07:32:04;;;;;;;16.92;6.40;;;25.20;99.90;;;;;;4939472;29;20043;-59
2022/08/04 07:34:31;;;;;;;17.05;6.45;;;25.30;99.90;;;;;;4940092;29;20048;-58
2022/08/04 07:36:59;;;;;;;12.60;5.20;;;25.90;99.90;;;;;;4940303;29;20046;-57
2022/08/04 07:39:28;;;;;;;12.93;5.88;;;25.90;99.90;;;;;;4939595;29;20051;-58
2022/08/04 07:41:55;;;;;;;12.55;5.22;;;25.70;99.90;;;;;;4938905;29;20455;-58
2022/08/04 07:44:20;;;;;;;15.43;5.18;;;25.30;99.90;;;;;;4939404;29;20071;-58
2022/08/04 07:46:46;;;;;;;17.10;4.90;;;25.00;99.90;;;;;;4939976;29;20039;-58
2022/08/04 07:49:13;;;;;;;12.75;5.28;;;25.10;99.90;;;;;;4939916;29;20043;-57
2022/08/04 07:51:39;;;;;;;16.25;5.05;;;25.20;99.90;;;;;;4938757;29;20047;-57
2022/08/04 07:54:08;;;;;;;14.50;5.35;;;25.30;99.90;;;;;;4939949;29;20649;-57
2022/08/04 07:56:39;;;;;;;14.82;5.90;;;25.30;99.90;;;;;;4939887;29;20047;-57
2022/08/04 07:59:05;;;;;;;11.98;4.40;;;25.30;99.90;;;;;;4939067;29;20047;-59
2022/08/04 08:01:31;;;;;;;11.25;4.55;;;25.60;99.90;;;;;;4939912;29;20098;-58
2022/08/04 08:03:59;;;;;;;11.82;5.07;;;25.70;99.90;;;;;;4939888;29;20699;-57
2022/08/04 08:06:25;;;;;;;12.50;4.95;;;25.90;99.90;;;;;;4941110;28;20043;-58
2022/08/04 08:08:51;;;;;;;11.75;4.57;;;25.90;99.90;;;;;;4947360;28;20043;-58
2022/08/04 08:11:17;;;;;;;15.20;5.03;;;26.10;99.90;;;;;;4939534;29;20047;-58
2022/08/04 08:13:44;;;;;;;10.70;4.68;;;26.20;99.90;;;;;;4939890;29;20053;-58
2022/08/04 08:16:10;;;;;;;11.13;5.00;;;26.10;99.90;;;;;;4938425;28;20102;-58
2022/08/04 08:18:36;;;;;;;9.18;4.57;;;26.10;99.90;;;;;;4938892;29;20050;-58
2022/08/04 08:21:03;;;;;;;13.32;4.95;;;26.20;99.90;;;;;;4939900;29;20405;-58
2022/08/04 08:23:30;;;;;;;18.10;4.72;;;26.10;99.90;;;;;;4939440;29;20047;-58
2022/08/04 08:25:57;;;;;;;10.25;4.50;;;26.20;99.90;;;;;;4940107;29;20083;-58
2022/08/04 08:28:23;;;;;;;9.75;3.85;;;26.00;99.90;;;;;;4937721;29;20043;-58
2022/08/04 08:30:49;;;;;;;13.73;4.95;;;26.10;99.90;;;;;;4941092;28;20042;-57
2022/08/04 08:33:16;;;;;;;12.05;3.88;;;26.00;99.90;;;;;;4943338;29;20047;-57
2022/08/04 08:35:54;;;;;;;14.23;4.38;;;26.00;99.90;;;;;;4943327;29;20122;-57
2022/08/04 08:38:32;;;;;;;12.98;4.28;;;26.30;99.90;;;;;;4942486;29;20396;-58
2022/08/04 08:41:18;;;;;;;12.18;4.18;;;26.40;99.90;;;;;;4943264;29;20750;-57
2022/08/04 08:43:47;;;;;;;14.48;4.18;;;26.70;99.90;;;;;;4942390;29;20086;-58
2022/08/04 08:46:43;;;;;;;12.43;4.18;;;26.90;99.90;;;;;;4943242;29;20137;-57
2022/08/04 08:49:14;;;;;;;9.77;3.85;;;26.80;99.90;;;;;;4943039;29;20130;-58
2022/08/04 08:52:05;;;;;;;12.70;4.18;;;27.00;99.90;;;;;;4942323;29;20416;-58
2022/08/04 08:54:46;;;;;;;9.90;4.25;;;26.80;99.90;;;;;;4942152;29;20051;-58
2022/08/04 08:57:49;;;;;;;9.98;4.00;;;26.50;99.90;;;;;;4942158;29;20090;-58
2022/08/04 09:00:46;;;;;;;11.50;3.75;;;26.60;99.90;;;;;;4942718;29;20079;-57
2022/08/04 09:03:33;;;;;;;7.68;4.00;;;26.60;99.90;;;;;;4942347;29;20035;-54
2022/08/04 09:06:19;;;;;;;9.63;4.03;;;27.10;99.90;;;;;;4944291;28;20039;-58
2022/08/04 09:09:02;;;;;;;9.80;3.72;;;27.10;99.90;;;;;;4951049;28;20044;-57
2022/08/04 09:11:53;;;;;;;11.57;3.80;;;26.90;99.90;;;;;;4940603;29;20110;-57
2022/08/04 09:14:44;;;;;;;12.13;3.88;;;27.00;99.90;;;;;;4941893;29;20043;-58
2022/08/04 09:17:22;;;;;;;11.60;3.60;;;27.50;99.90;;;;;;4936497;29;21063;-58
2022/08/04 09:20:11;;;;;;;10.88;3.72;;;27.80;99.90;;;;;;4942215;29;20047;-57
2022/08/04 09:22:53;;;;;;;10.88;3.50;;;28.00;99.90;;;;;;4936581;29;20055;-58
2022/08/04 09:25:30;;;;;;;6.45;2.97;;;28.10;99.90;;;;;;4924581;29;20450;-57
2022/08/04 09:28:01;;;;;;;11.25;3.40;;;28.40;99.90;;;;;;4941433;29;20118;-57
2022/08/04 09:30:55;;;;;;;8.90;3.35;;;28.50;99.90;;;;;;4941942;29;20051;-59
2022/08/04 09:33:36;;;;;;;8.45;3.13;;;29.10;99.90;;;;;;4924737;29;20055;-58
2022/08/04 09:36:12;;;;;;;7.05;2.70;;;29.00;99.90;;;;;;4924864;29;20059;-58
2022/08/04 09:39:23;;;;;;;7.50;2.70;;;29.20;99.90;;;;;;4941841;29;20055;-59
2022/08/04 09:42:17;;;;;;;12.45;3.65;;;29.40;99.90;;;;;;4930402;28;20059;-58
2022/08/04 09:44:52;;;;;;;8.40;3.17;;;29.80;99.90;;;;;;4942259;29;20055;-57
2022/08/04 09:47:53;;;;;;;8.43;2.90;;;29.70;99.90;;;;;;4941526;29;20050;-60
2022/08/04 09:50:22;;;;;;;9.57;3.25;;;29.80;99.90;;;;;;4940370;29;20047;-57
2022/08/04 09:53:08;;;;;;;10.27;2.88;;;29.90;99.90;;;;;;4941931;29;20039;-58
2022/08/04 09:55:47;;;;;;;8.35;2.83;;;30.00;99.90;;;;;;4941382;29;20058;-58
2022/08/04 09:58:33;;;;;;;7.30;3.10;;;30.10;99.90;;;;;;4940884;29;20083;-57
2022/08/04 10:01:06;;;;;;;8.88;2.55;;;30.10;99.90;;;;;;4941660;29;20047;-58
2022/08/04 10:03:36;;;;;;;6.45;2.78;;;30.30;99.90;;;;;;4939752;29;20086;-58
2022/08/04 10:06:55;;;;;;;11.85;2.75;;;30.20;99.90;;;;;;4943840;28;20053;-58
2022/08/04 10:09:50;;;;;;;11.18;2.80;;;30.10;99.90;;;;;;4940875;29;20122;-58
2022/08/04 10:12:30;;;;;;;8.75;2.47;;;30.50;99.90;;;;;;4939984;29;20059;-56
2022/08/04 10:15:28;;;;;;;10.38;2.85;;;30.70;99.90;;;;;;4941387;29;20043;-57
2022/08/04 10:17:53;;;;;;;9.45;3.03;;;30.50;99.90;;;;;;4932448;29;20074;-58
2022/08/04 10:20:50;;;;;;;8.50;3.00;;;30.30;99.90;;;;;;4940367;29;20047;-59
2022/08/04 10:23:33;;;;;;;8.82;2.63;;;30.50;99.90;;;;;;4940537;29;20221;-57
2022/08/04 10:26:44;;;;;;;7.18;2.78;;;30.90;99.90;;;;;;4940555;29;20047;-58
2022/08/04 10:29:27;;;;;;;8.63;3.20;;;30.60;99.90;;;;;;4923162;29;20055;-59
2022/08/04 10:32:13;;;;;;;11.00;2.50;;;30.40;99.90;;;;;;4941520;29;20046;-58
2022/08/04 10:35:01;;;;;;;10.30;2.60;;;31.00;99.90;;;;;;4939624;29;20281;-61
2022/08/04 10:37:34;;;;;;;7.75;2.72;;;30.80;99.90;;;;;;4940362;29;20069;-58
2022/08/04 10:42:59;;;;;;;8.32;3.03;;;30.60;99.90;;;;;;4940245;29;20047;-58
2022/08/04 10:45:44;;;;;;;9.48;3.10;;;30.70;99.90;;;;;;4939512;29;20055;-59
2022/08/04 10:48:44;;;;;;;8.15;2.80;;;30.90;99.90;;;;;;4955764;28;20038;-59
2022/08/04 10:51:37;;;;;;;10.70;3.85;;;31.00;99.90;;;;;;4969734;28;20050;-61
2022/08/04 10:54:27;;;;;;;10.85;4.05;;;31.10;99.90;;;;;;4978364;28;20148;-58
2022/08/04 10:57:00;;;;;;;10.30;4.07;;;31.30;99.90;;;;;;4967244;28;20065;-58
2022/08/04 10:59:57;;;;;;;10.15;4.20;;;31.40;99.90;;;;;;4960197;28;20185;-58
2022/08/04 11:02:36;;;;;;;9.98;3.53;;;31.40;99.90;;;;;;4979086;28;20045;-59
2022/08/04 11:05:24;;;;;;;6.90;3.72;;;31.20;99.90;;;;;;4979200;28;20054;-58
2022/08/04 11:07:55;;;;;;;14.13;4.53;;;31.20;99.90;;;;;;4947299;28;20089;-59
2022/08/04 11:10:24;;;;;;;9.63;4.00;;;31.00;99.90;;;;;;4961133;28;20105;-58
2022/08/04 11:12:55;;;;;;;9.85;3.75;;;31.20;99.90;;;;;;4961834;28;20051;-58
2022/08/04 11:15:27;;;;;;;8.73;3.80;;;31.20;99.90;;;;;;4939928;29;20063;-58
2022/08/04 11:18:00;;;;;;;10.05;4.22;;;31.00;99.90;;;;;;4960133;28;20050;-58
2022/08/04 11:20:37;;;;;;;8.73;3.88;;;30.60;99.90;;;;;;4979102;28;20437;-58
2022/08/04 11:23:10;;;;;;;6.88;4.00;;;30.60;99.90;;;;;;4961729;28;20038;-59
2022/08/04 11:25:54;;;;;;;7.45;3.80;;;30.30;99.90;;;;;;4978946;28;20403;-59
2022/08/04 11:28:51;;;;;;;7.35;3.35;;;30.60;99.90;;;;;;4976890;28;20069;-59
2022/08/04 11:31:29;;;;;;;13.23;3.80;;;30.80;99.90;;;;;;4978608;28;20646;-57
2022/08/04 11:34:24;;;;;;;8.15;3.30;;;30.60;99.90;;;;;;4978367;28;20042;-61
2022/08/04 11:37:08;;;;;;;;;;;30.40;99.90;;;;;;4979146;28;20046;-59
2022/08/04 11:39:59;;;;;;;7.55;3.33;;;30.20;99.90;;;;;;4978314;28;19976;-59
2022/08/04 11:42:32;;;;;;;11.00;3.38;;;30.10;99.90;;;;;;4977599;28;20042;-59
2022/08/04 11:45:10;;;;;;;6.38;2.85;;;30.20;99.90;;;;;;4977988;28;20069;-59
2022/08/04 11:48:02;;;;;;;9.90;2.80;;;29.90;99.90;;;;;;4978297;28;20224;-59
2022/08/04 11:50:43;;;;;;;8.43;2.63;;;29.90;99.90;;;;;;4978477;28;20046;-62
2022/08/04 11:53:15;;;;;;;7.90;2.72;;;29.80;99.90;;;;;;4978688;28;20042;-59
2022/08/04 11:55:44;;;;;;;7.75;2.60;;;29.80;99.90;;;;;;4978386;28;20073;-59
2022/08/04 11:58:10;;;;;;;7.35;2.40;;;29.60;99.90;;;;;;4978128;28;20046;-59
2022/08/04 12:00:44;;;;;;;5.57;2.25;;;29.50;99.90;;;;;;4978498;28;20105;-59
2022/08/04 12:03:36;;;;;;;6.88;2.65;;;29.60;99.90;;;;;;4978202;28;20050;-59
2022/08/04 12:06:28;;;;;;;6.60;2.65;;;29.60;99.90;;;;;;4963532;28;20054;-58
2022/08/04 12:09:18;;;;;;;7.95;2.25;;;29.50;99.90;;;;;;4951143;28;20047;-57
2022/08/04 12:12:02;;;;;;;7.32;2.08;;;29.40;99.90;;;;;;4959971;28;20477;-58
2022/08/04 12:14:50;;;;;;;10.05;2.13;;;29.10;99.90;;;;;;4962214;28;20405;-59
2022/08/04 12:17:26;;;;;;;9.18;2.53;;;29.20;99.90;;;;;;4961612;28;20054;-57
2022/08/04 12:20:00;;;;;;;11.40;2.50;;;29.20;99.90;;;;;;4962105;28;20454;-58
2022/08/04 12:22:27;;;;;;;;;;;29.00;99.90;;;;;;4962525;28;20077;-58
2022/08/04 12:25:04;;;;;;;6.85;2.38;;;28.80;99.90;;;;;;4961087;28;20700;-58
2022/08/04 12:27:38;;;;;;;8.90;2.25;;;28.60;99.90;;;;;;4961016;28;20050;-58
2022/08/04 12:30:05;;;;;;;8.48;2.30;;;28.60;99.90;;;;;;4962232;28;20038;-58
2022/08/04 12:32:54;;;;;;;7.43;2.40;;;28.70;99.90;;;;;;4961142;28;20050;-56
2022/08/04 12:35:33;;;;;;;6.60;2.30;;;28.60;99.90;;;;;;4961369;28;20035;-57
2022/08/04 12:38:07;;;;;;;11.23;2.83;;;28.50;99.90;;;;;;4961696;28;20133;-57
2022/08/04 12:40:54;;;;;;;;;;;28.30;99.90;;;;;;4962009;28;20050;-57
2022/08/04 12:43:28;;;;;;;10.68;3.00;;;28.40;99.90;;;;;;4960592;28;19936;-57
2022/08/04 12:46:01;;;;;;;6.35;2.00;;;28.30;99.90;;;;;;4961819;28;20051;-58
2022/08/04 12:48:27;;;;;;;5.45;1.80;;;28.20;99.90;;;;;;4961675;28;20122;-58
2022/08/04 12:50:55;;;;;;;5.30;1.77;;;28.20;99.90;;;;;;4961110;28;20050;-58
2022/08/04 12:53:28;;;;;;;4.47;1.70;;;28.30;99.90;;;;;;4956471;28;20061;-57
2022/08/04 12:55:55;;;;;;;11.77;2.15;;;28.10;99.90;;;;;;4961722;28;20453;-57
2022/08/04 12:58:23;;;;;;;5.82;1.60;;;27.70;99.90;;;;;;4960263;28;20062;-58
2022/08/04 13:00:57;;;;;;;3.92;1.60;;;27.50;99.90;;;;;;4976645;28;20039;-58
2022/08/04 13:03:28;;;;;;;4.57;1.77;;;27.40;99.90;;;;;;4961488;28;20058;-58
2022/08/04 13:05:54;;;;;;;4.55;1.63;;;27.30;99.90;;;;;;4958768;28;20234;-58
2022/08/04 13:08:21;;;;;;;4.03;1.60;;;27.10;99.90;;;;;;4950954;28;20102;-57
2022/08/04 13:10:52;;;;;;;5.75;1.70;;;27.00;99.90;;;;;;4941364;29;20054;-57
2022/08/04 13:13:25;;;;;;;3.50;1.50;;;27.00;99.90;;;;;;4946609;28;20047;-57
2022/08/04 13:15:56;;;;;;;4.70;1.75;;;26.90;99.90;;;;;;4947373;28;20383;-58
2022/08/04 13:18:22;;;;;;;4.50;1.80;;;26.70;99.90;;;;;;4947064;28;20074;-57
2022/08/04 13:20:47;;;;;;;5.82;1.65;;;26.50;99.90;;;;;;4948694;28;20055;-58
2022/08/04 13:23:16;;;;;;;4.07;1.80;;;26.30;99.90;;;;;;4947486;28;20529;-58
2022/08/04 13:25:47;;;;;;;6.32;1.60;;;26.20;99.90;;;;;;4947354;28;20129;-56
2022/08/04 13:28:26;;;;;;;6.57;1.90;;;26.00;99.90;;;;;;4948548;28;20435;-58